Time;durP1;ratioP1;P1;durP2;ratioP2;P2;SDS_P1;SDS_P2;PMS_P1;PMS_P2;Temp;Humidity;BMP_temperature;BMP_pressure;BME280_temperature;BME280_humidity;BME280_pressure;Samples;Min_cycle;Max_cycle;Signal;HPM_P1;HPM_P2
2022/03/24 00:02:06;;;;;;;0.10;0.10;;;;;;;;;;5070027;28;20423;-67
2022/03/24 00:04:32;;;;;;;0.10;0.10;;;;;;;;;;5070410;28;20536;-63
2022/03/24 00:06:57;;;;;;;0.20;0.20;;;;;;;;;;5052462;28;20119;-63
2022/03/24 00:09:23;;;;;;;0.57;0.57;;;;;;;;;;5070310;28;20032;-62
2022/03/24 00:11:48;;;;;;;0.10;0.10;;;;;;;;;;5070124;28;20055;-62
2022/03/24 00:14:14;;;;;;;0.10;0.10;;;;;;;;;;5051651;28;20040;-62
2022/03/24 00:16:39;;;;;;;0.10;0.10;;;;;;;;;;5054167;28;20033;-62
2022/03/24 00:19:05;;;;;;;0.20;0.20;;;;;;;;;;5073824;28;20033;-62
2022/03/24 00:21:30;;;;;;;0.10;0.10;;;;;;;;;;5073679;28;20037;-62
2022/03/24 00:23:56;;;;;;;0.10;0.10;;;;;;;;;;5073772;28;20166;-62
2022/03/24 00:26:22;;;;;;;0.75;0.75;;;;;;;;;;5073739;28;20017;-61
2022/03/24 00:28:47;;;;;;;0.10;0.10;;;;;;;;;;5055389;28;20040;-61
2022/03/24 00:31:14;;;;;;;0.10;0.10;;;;;;;;;;5055995;28;20101;-62
2022/03/24 00:33:40;;;;;;;0.17;0.17;;;;;;;;;;5055633;28;20029;-63
2022/03/24 00:36:08;;;;;;;0.10;0.10;;;;;;;;;;5055813;28;20032;-63
2022/03/24 00:38:34;;;;;;;0.10;0.10;;;;;;;;;;5038976;28;20036;-63
2022/03/24 00:41:02;;;;;;;0.10;0.10;;;;;;;;;;5055367;28;20082;-63
2022/03/24 00:43:28;;;;;;;0.10;0.10;;;;;;;;;;5072781;28;20040;-63
2022/03/24 00:45:54;;;;;;;0.10;0.10;;;;;;;;;;5038913;28;20050;-62
2022/03/24 00:48:19;;;;;;;0.10;0.10;;;;;;;;;;5073544;28;20036;-62
2022/03/24 00:50:45;;;;;;;0.10;0.10;;;;;;;;;;5055374;28;20028;-62
2022/03/24 00:53:11;;;;;;;0.15;0.15;;;;;;;;;;5073126;28;20123;-62
2022/03/24 00:55:37;;;;;;;0.10;0.10;;;;;;;;;;5038735;28;20032;-62
2022/03/24 00:58:03;;;;;;;0.10;0.10;;;;;;;;;;5055090;28;20396;-62
2022/03/24 01:00:30;;;;;;;0.10;0.10;;;;;;;;;;5039014;28;20468;-61
2022/03/24 01:02:57;;;;;;;0.10;0.10;;;;;;;;;;5055362;28;20054;-62
2022/03/24 01:05:27;;;;;;;4.97;4.68;;;;;;;;;;5073190;28;20105;-62
2022/03/24 01:07:53;;;;;;;0.20;0.20;;;;;;;;;;5055468;28;20421;-62
2022/03/24 01:10:20;;;;;;;1.02;0.75;;;;;;;;;;5038640;28;20211;-62
2022/03/24 01:12:46;;;;;;;0.10;0.10;;;;;;;;;;5072850;28;20059;-62
2022/03/24 01:15:14;;;;;;;0.10;0.10;;;;;;;;;;5038447;28;20037;-62
2022/03/24 01:17:40;;;;;;;0.17;0.17;;;;;;;;;;5054917;28;20028;-62
2022/03/24 01:20:09;;;;;;;0.10;0.10;;;;;;;;;;5054826;28;20079;-62
2022/03/24 01:22:35;;;;;;;0.15;0.15;;;;;;;;;;5038307;28;20036;-62
2022/03/24 01:25:00;;;;;;;0.10;0.10;;;;;;;;;;5054841;28;20507;-62
2022/03/24 01:27:27;;;;;;;0.40;0.40;;;;;;;;;;5072509;28;20033;-62
2022/03/24 01:29:57;;;;;;;0.10;0.10;;;;;;;;;;5038437;28;20498;-62
2022/03/24 01:32:23;;;;;;;0.10;0.10;;;;;;;;;;5072651;28;20525;-63
2022/03/24 01:34:50;;;;;;;0.10;0.10;;;;;;;;;;5054959;28;20060;-62
2022/03/24 01:37:18;;;;;;;;;;;;;;;;;;5038923;28;20434;-63
2022/03/24 01:39:44;;;;;;;0.33;0.33;;;;;;;;;;5072374;28;19908;-63
2022/03/24 01:42:09;;;;;;;0.10;0.10;;;;;;;;;;5037817;28;20297;-62
2022/03/24 01:44:35;;;;;;;0.10;0.10;;;;;;;;;;5054702;28;20483;-62
2022/03/24 01:47:02;;;;;;;0.10;0.10;;;;;;;;;;5072458;28;20032;-62
2022/03/24 01:49:29;;;;;;;0.10;0.10;;;;;;;;;;5054868;28;20017;-63
2022/03/24 01:51:55;;;;;;;0.10;0.10;;;;;;;;;;5054401;28;20127;-63
2022/03/24 01:54:21;;;;;;;0.20;0.20;;;;;;;;;;5036612;28;20137;-64
2022/03/24 01:56:49;;;;;;;0.10;0.10;;;;;;;;;;5037931;28;20128;-62
2022/03/24 01:59:16;;;;;;;0.10;0.10;;;;;;;;;;5054538;28;20064;-62
2022/03/24 02:01:42;;;;;;;0.10;0.10;;;;;;;;;;5054328;28;20105;-63
2022/03/24 02:04:08;;;;;;;0.10;0.10;;;;;;;;;;5072192;28;20037;-62
2022/03/24 02:06:34;;;;;;;0.10;0.10;;;;;;;;;;5054388;28;20039;-62
2022/03/24 02:09:03;;;;;;;0.10;0.10;;;;;;;;;;5054001;28;20468;-62
2022/03/24 02:11:30;;;;;;;0.10;0.10;;;;;;;;;;5037945;28;20045;-62
2022/03/24 02:13:56;;;;;;;0.10;0.10;;;;;;;;;;5054524;28;20375;-62
2022/03/24 02:16:27;;;;;;;0.10;0.10;;;;;;;;;;5054519;28;20115;-62
2022/03/24 02:18:58;;;;;;;0.10;0.10;;;;;;;;;;5054580;28;20032;-62
2022/03/24 02:21:23;;;;;;;1.08;1.00;;;;;;;;;;5037734;28;20040;-62
2022/03/24 02:23:50;;;;;;;0.10;0.10;;;;;;;;;;5071796;28;20464;-63
2022/03/24 02:26:17;;;;;;;0.95;0.95;;;;;;;;;;5037588;28;20366;-63
2022/03/24 02:28:44;;;;;;;0.10;0.10;;;;;;;;;;5037602;28;20119;-61
2022/03/24 02:31:10;;;;;;;0.40;0.40;;;;;;;;;;5037456;28;20066;-61
2022/03/24 02:33:36;;;;;;;0.10;0.10;;;;;;;;;;5053891;28;20033;-62
2022/03/24 02:36:03;;;;;;;0.28;0.28;;;;;;;;;;5037300;28;20040;-61
2022/03/24 02:38:28;;;;;;;0.13;0.13;;;;;;;;;;5037139;28;20087;-62
2022/03/24 02:40:54;;;;;;;0.00;0.00;;;;;;;;;;5037300;28;20490;-63
2022/03/24 02:43:19;;;;;;;0.10;0.10;;;;;;;;;;5071816;28;20059;-62
2022/03/24 02:45:46;;;;;;;0.10;0.10;;;;;;;;;;5037151;28;20036;-62
2022/03/24 02:48:12;;;;;;;0.10;0.10;;;;;;;;;;5071972;28;20033;-61
2022/03/24 02:50:38;;;;;;;0.10;0.10;;;;;;;;;;5036926;28;20587;-61
2022/03/24 02:53:04;;;;;;;0.10;0.10;;;;;;;;;;5053604;28;20072;-62
2022/03/24 02:55:31;;;;;;;0.47;0.47;;;;;;;;;;5054195;28;20012;-62
2022/03/24 02:57:56;;;;;;;0.10;0.10;;;;;;;;;;5071675;28;20032;-62
2022/03/24 03:00:25;;;;;;;0.10;0.10;;;;;;;;;;5071664;28;20033;-63
2022/03/24 03:02:54;;;;;;;0.10;0.10;;;;;;;;;;5037054;28;20039;-62
2022/03/24 03:05:20;;;;;;;0.10;0.10;;;;;;;;;;5037871;28;20044;-62
2022/03/24 03:07:46;;;;;;;0.10;0.10;;;;;;;;;;5056903;28;20066;-62
2022/03/24 03:10:11;;;;;;;0.10;0.10;;;;;;;;;;5040533;28;20024;-61
2022/03/24 03:12:37;;;;;;;0.10;0.10;;;;;;;;;;5075040;28;20040;-62
2022/03/24 03:15:03;;;;;;;0.52;0.52;;;;;;;;;;5074780;28;20037;-63
2022/03/24 03:17:29;;;;;;;0.10;0.10;;;;;;;;;;5056691;28;20040;-62
2022/03/24 03:19:54;;;;;;;0.10;0.10;;;;;;;;;;5074692;28;20036;-63
2022/03/24 03:22:21;;;;;;;0.10;0.10;;;;;;;;;;5076738;28;20042;-61
2022/03/24 03:24:46;;;;;;;0.10;0.10;;;;;;;;;;5041825;28;20052;-62
2022/03/24 03:27:12;;;;;;;3.83;3.50;;;;;;;;;;5056634;28;20083;-62
2022/03/24 03:29:38;;;;;;;0.10;0.10;;;;;;;;;;5064123;28;20473;-62
2022/03/24 03:32:04;;;;;;;0.10;0.10;;;;;;;;;;5094565;28;20062;-62
2022/03/24 03:34:29;;;;;;;0.10;0.10;;;;;;;;;;5076191;28;20028;-62
2022/03/24 03:36:55;;;;;;;0.10;0.10;;;;;;;;;;5093806;28;20044;-64
2022/03/24 03:39:21;;;;;;;0.10;0.10;;;;;;;;;;5059808;28;20028;-62
2022/03/24 03:41:46;;;;;;;0.10;0.10;;;;;;;;;;5076499;28;20040;-63
2022/03/24 03:44:11;;;;;;;0.10;0.10;;;;;;;;;;5094404;28;20544;-63
2022/03/24 03:46:37;;;;;;;5.07;4.75;;;;;;;;;;5094477;28;20536;-62
2022/03/24 03:49:04;;;;;;;1.48;1.38;;;;;;;;;;5094209;28;20119;-62
2022/03/24 03:51:31;;;;;;;3.42;1.75;;;;;;;;;;5094324;28;20039;-63
2022/03/24 03:53:57;;;;;;;6.68;6.13;;;;;;;;;;5076357;28;20115;-62
2022/03/24 03:56:23;;;;;;;0.10;0.10;;;;;;;;;;5094348;28;20119;-62
2022/03/24 03:58:48;;;;;;;0.10;0.10;;;;;;;;;;5094382;28;20024;-62
2022/03/24 04:01:14;;;;;;;0.10;0.10;;;;;;;;;;5094357;28;20526;-61
2022/03/24 04:03:40;;;;;;;0.10;0.10;;;;;;;;;;5040970;28;20044;-62
2022/03/24 04:06:06;;;;;;;0.10;0.10;;;;;;;;;;5070097;28;20036;-62
2022/03/24 04:08:32;;;;;;;0.10;0.10;;;;;;;;;;5035427;28;20043;-62
2022/03/24 04:10:58;;;;;;;0.10;0.10;;;;;;;;;;5052199;28;20036;-62
2022/03/24 04:13:24;;;;;;;0.10;0.10;;;;;;;;;;5052334;28;20438;-62
2022/03/24 04:15:50;;;;;;;0.20;0.20;;;;;;;;;;5035358;28;20925;-63
2022/03/24 04:18:16;;;;;;;0.10;0.10;;;;;;;;;;5068651;28;20097;-62
2022/03/24 04:20:42;;;;;;;0.55;0.52;;;;;;;;;;5062065;28;20029;-64
2022/03/24 04:23:08;;;;;;;0.10;0.10;;;;;;;;;;5015354;28;20039;-62
2022/03/24 04:25:34;;;;;;;0.10;0.10;;;;;;;;;;5032321;28;20032;-62
2022/03/24 04:28:00;;;;;;;0.10;0.10;;;;;;;;;;5031943;28;20045;-62
2022/03/24 04:30:26;;;;;;;0.10;0.10;;;;;;;;;;5031689;28;20036;-62
2022/03/24 04:32:52;;;;;;;0.10;0.10;;;;;;;;;;5049557;28;20032;-63
2022/03/24 04:35:18;;;;;;;0.10;0.10;;;;;;;;;;5049658;28;20029;-63
2022/03/24 04:37:43;;;;;;;0.10;0.10;;;;;;;;;;5049749;28;20595;-63
2022/03/24 04:40:11;;;;;;;0.10;0.10;;;;;;;;;;5031562;28;20116;-63
2022/03/24 04:42:45;;;;;;;0.10;0.10;;;;;;;;;;5031550;28;20036;-68
2022/03/24 04:45:12;;;;;;;0.10;0.10;;;;;;;;;;5015593;28;20619;-63
2022/03/24 04:47:37;;;;;;;0.10;0.10;;;;;;;;;;5015148;28;20110;-62
2022/03/24 04:50:04;;;;;;;0.10;0.10;;;;;;;;;;5031532;28;20507;-63
2022/03/24 04:52:29;;;;;;;0.10;0.10;;;;;;;;;;5031386;28;20029;-63
2022/03/24 04:54:55;;;;;;;0.10;0.10;;;;;;;;;;5049531;28;20025;-63
2022/03/24 04:57:21;;;;;;;0.10;0.10;;;;;;;;;;5031573;28;20110;-63
2022/03/24 04:59:46;;;;;;;0.10;0.10;;;;;;;;;;5049269;28;20032;-67
2022/03/24 05:02:15;;;;;;;0.10;0.10;;;;;;;;;;5048903;28;20047;-69
2022/03/24 05:04:44;;;;;;;0.10;0.10;;;;;;;;;;5014871;28;20126;-62
2022/03/24 05:07:10;;;;;;;0.10;0.10;;;;;;;;;;5015024;28;20111;-62
2022/03/24 05:09:36;;;;;;;0.40;0.40;;;;;;;;;;5031182;28;20033;-62
2022/03/24 05:12:02;;;;;;;0.10;0.10;;;;;;;;;;5049169;28;20369;-62
2022/03/24 05:14:27;;;;;;;0.10;0.10;;;;;;;;;;5048589;28;20031;-63
2022/03/24 05:16:53;;;;;;;0.10;0.10;;;;;;;;;;5048994;28;20029;-62
2022/03/24 05:19:19;;;;;;;0.10;0.10;;;;;;;;;;5031362;28;20405;-64
2022/03/24 05:21:45;;;;;;;0.10;0.10;;;;;;;;;;5015001;28;20037;-65
2022/03/24 05:24:11;;;;;;;0.10;0.10;;;;;;;;;;5030580;28;20037;-64
2022/03/24 05:26:37;;;;;;;0.10;0.10;;;;;;;;;;5015011;28;20694;-62
2022/03/24 05:29:03;;;;;;;2.00;1.90;;;;;;;;;;5014556;28;20098;-62
2022/03/24 05:31:28;;;;;;;0.10;0.10;;;;;;;;;;5048816;28;20029;-61
2022/03/24 05:33:54;;;;;;;1.30;1.30;;;;;;;;;;5049019;28;20037;-62
2022/03/24 05:36:19;;;;;;;0.10;0.10;;;;;;;;;;5048518;28;20392;-62
2022/03/24 05:38:45;;;;;;;0.10;0.10;;;;;;;;;;5048961;28;20027;-62
2022/03/24 05:41:12;;;;;;;0.10;0.10;;;;;;;;;;5030791;28;20044;-67
2022/03/24 05:43:38;;;;;;;0.10;0.10;;;;;;;;;;5030835;28;20068;-62
2022/03/24 05:46:04;;;;;;;0.17;0.17;;;;;;;;;;5030428;28;20107;-62
2022/03/24 05:48:30;;;;;;;0.10;0.10;;;;;;;;;;5048237;28;20159;-63
2022/03/24 05:51:15;;;;;;;0.10;0.10;;;;;;;;;;5047946;28;20029;-63
2022/03/24 05:53:40;;;;;;;0.10;0.10;;;;;;;;;;5048695;28;20059;-67
2022/03/24 05:56:06;;;;;;;0.10;0.10;;;;;;;;;;5048583;28;20032;-64
2022/03/24 05:58:31;;;;;;;0.10;0.10;;;;;;;;;;5048414;28;20060;-63
2022/03/24 06:00:57;;;;;;;0.10;0.10;;;;;;;;;;5048467;28;20041;-62
2022/03/24 06:03:23;;;;;;;0.10;0.10;;;;;;;;;;5048696;28;20095;-62
2022/03/24 06:05:48;;;;;;;0.10;0.10;;;;;;;;;;5014406;28;20017;-62
2022/03/24 06:08:14;;;;;;;0.10;0.10;;;;;;;;;;5047999;28;20033;-62
2022/03/24 06:10:40;;;;;;;0.20;0.20;;;;;;;;;;5030802;28;20025;-62
2022/03/24 06:13:06;;;;;;;0.10;0.10;;;;;;;;;;5030409;28;20112;-65
2022/03/24 06:15:32;;;;;;;0.10;0.10;;;;;;;;;;5048407;28;20476;-65
2022/03/24 06:17:57;;;;;;;0.45;0.45;;;;;;;;;;5048213;28;20094;-64
2022/03/24 06:20:23;;;;;;;0.10;0.10;;;;;;;;;;5048339;28;20075;-64
2022/03/24 06:22:49;;;;;;;0.10;0.10;;;;;;;;;;5030576;28;20037;-64
2022/03/24 06:25:15;;;;;;;0.10;0.10;;;;;;;;;;5048180;28;20033;-66
2022/03/24 06:27:41;;;;;;;0.13;0.13;;;;;;;;;;5048870;28;20127;-65
2022/03/24 06:30:07;;;;;;;0.10;0.10;;;;;;;;;;5080885;28;20064;-66
2022/03/24 06:32:32;;;;;;;0.98;0.98;;;;;;;;;;5074851;28;20035;-64
2022/03/24 06:34:58;;;;;;;0.10;0.10;;;;;;;;;;5065262;28;20029;-65
2022/03/24 06:37:24;;;;;;;3.70;3.40;;;;;;;;;;5065403;28;20024;-65
2022/03/24 06:39:49;;;;;;;0.10;0.10;;;;;;;;;;5064241;28;20574;-64
2022/03/24 06:42:15;;;;;;;0.10;0.10;;;;;;;;;;5048863;28;20036;-66
2022/03/24 06:44:40;;;;;;;0.10;0.10;;;;;;;;;;5049157;28;20028;-67
2022/03/24 06:47:06;;;;;;;0.10;0.10;;;;;;;;;;5067191;28;20070;-65
2022/03/24 06:49:32;;;;;;;0.10;0.10;;;;;;;;;;5067089;28;20043;-66
2022/03/24 06:51:57;;;;;;;0.10;0.10;;;;;;;;;;5054224;28;20085;-65
2022/03/24 06:54:23;;;;;;;0.10;0.10;;;;;;;;;;5067512;28;20040;-65
2022/03/24 06:56:49;;;;;;;0.35;0.35;;;;;;;;;;5069018;28;20048;-65
2022/03/24 06:59:15;;;;;;;0.10;0.10;;;;;;;;;;5050629;28;20126;-65
2022/03/24 07:01:42;;;;;;;0.15;0.15;;;;;;;;;;5068938;28;20115;-64
2022/03/24 07:04:07;;;;;;;0.10;0.10;;;;;;;;;;5050704;28;20028;-65
2022/03/24 07:06:32;;;;;;;0.10;0.10;;;;;;;;;;5067836;28;20033;-65
2022/03/24 07:08:58;;;;;;;0.10;0.10;;;;;;;;;;5068727;28;20671;-64
2022/03/24 07:11:23;;;;;;;0.10;0.10;;;;;;;;;;5068529;28;20042;-66
2022/03/24 07:13:49;;;;;;;0.13;0.13;;;;;;;;;;5068851;28;20032;-67
2022/03/24 07:16:15;;;;;;;0.20;0.20;;;;;;;;;;5068696;28;20495;-65
2022/03/24 07:18:40;;;;;;;0.10;0.10;;;;;;;;;;5068037;28;20475;-66
2022/03/24 07:21:06;;;;;;;0.20;0.20;;;;;;;;;;5068485;28;20037;-66
2022/03/24 07:23:32;;;;;;;0.20;0.20;;;;;;;;;;5033975;28;20029;-65
2022/03/24 07:25:57;;;;;;;0.17;0.17;;;;;;;;;;5051109;28;20079;-67
2022/03/24 07:28:23;;;;;;;0.20;0.20;;;;;;;;;;5050473;28;20036;-66
2022/03/24 07:30:50;;;;;;;0.20;0.20;;;;;;;;;;5067773;28;20067;-65
2022/03/24 07:33:16;;;;;;;0.20;0.20;;;;;;;;;;5069136;28;20434;-65
2022/03/24 07:35:42;;;;;;;1.05;1.05;;;;;;;;;;5068186;28;20044;-66
2022/03/24 07:38:07;;;;;;;0.20;0.20;;;;;;;;;;5067357;28;20389;-65
2022/03/24 07:40:33;;;;;;;3.15;2.95;;;;;;;;;;5067665;28;20035;-65
2022/03/24 07:42:58;;;;;;;0.28;0.28;;;;;;;;;;5067447;28;20048;-65
2022/03/24 07:45:25;;;;;;;0.32;0.32;;;;;;;;;;5068388;28;20036;-66
2022/03/24 07:48:08;;;;;;;0.20;0.20;;;;;;;;;;5067203;28;20495;-67
2022/03/24 07:50:38;;;;;;;0.20;0.20;;;;;;;;;;5050454;28;20094;-65
2022/03/24 07:53:08;;;;;;;0.20;0.20;;;;;;;;;;5067021;28;20119;-65
2022/03/24 07:55:36;;;;;;;0.30;0.30;;;;;;;;;;5067932;28;20039;-66
2022/03/24 07:58:02;;;;;;;0.20;0.20;;;;;;;;;;5050464;28;20036;-66
2022/03/24 08:00:27;;;;;;;0.22;0.22;;;;;;;;;;5067924;28;20433;-64
2022/03/24 08:02:53;;;;;;;0.20;0.20;;;;;;;;;;5067801;28;20590;-65
2022/03/24 08:05:18;;;;;;;0.20;0.20;;;;;;;;;;5067992;28;20067;-64
2022/03/24 08:07:44;;;;;;;0.20;0.20;;;;;;;;;;5066952;28;20043;-64
2022/03/24 08:10:09;;;;;;;0.50;0.50;;;;;;;;;;5067753;28;20040;-65
2022/03/24 08:12:35;;;;;;;0.20;0.20;;;;;;;;;;5068049;28;20094;-65
2022/03/24 08:15:00;;;;;;;0.20;0.20;;;;;;;;;;5049535;28;20388;-65
2022/03/24 08:17:26;;;;;;;0.20;0.20;;;;;;;;;;5049409;28;20610;-65
2022/03/24 08:19:51;;;;;;;0.20;0.20;;;;;;;;;;5067433;28;20032;-64
2022/03/24 08:22:17;;;;;;;0.20;0.20;;;;;;;;;;5067607;28;20170;-65
2022/03/24 08:24:42;;;;;;;0.10;0.10;;;;;;;;;;5067839;28;20044;-67
2022/03/24 08:27:08;;;;;;;0.10;0.10;;;;;;;;;;5068125;28;20109;-66
2022/03/24 08:29:33;;;;;;;0.20;0.20;;;;;;;;;;5078673;28;20036;-67
2022/03/24 08:31:59;;;;;;;0.35;0.30;;;;;;;;;;5067202;28;20588;-66
2022/03/24 08:34:24;;;;;;;0.10;0.10;;;;;;;;;;5067106;28;20032;-66
2022/03/24 08:36:49;;;;;;;0.20;0.20;;;;;;;;;;5067655;28;20086;-65
2022/03/24 08:39:15;;;;;;;0.10;0.10;;;;;;;;;;5067569;28;20024;-66
2022/03/24 08:41:40;;;;;;;0.77;0.77;;;;;;;;;;5066759;28;20550;-65
2022/03/24 08:44:06;;;;;;;0.10;0.10;;;;;;;;;;5067455;28;20029;-67
2022/03/24 08:46:31;;;;;;;0.13;0.13;;;;;;;;;;5067011;28;20040;-66
2022/03/24 08:48:58;;;;;;;0.17;0.17;;;;;;;;;;5067326;28;20127;-64
2022/03/24 08:51:24;;;;;;;0.10;0.10;;;;;;;;;;5067147;28;20472;-65
2022/03/24 08:53:49;;;;;;;0.77;0.77;;;;;;;;;;5049439;28;20040;-65
2022/03/24 08:56:15;;;;;;;0.20;0.20;;;;;;;;;;5049056;28;20123;-66
2022/03/24 08:58:40;;;;;;;0.20;0.20;;;;;;;;;;5067443;28;20024;-64
2022/03/24 09:01:06;;;;;;;0.10;0.10;;;;;;;;;;5067232;28;20056;-67
2022/03/24 09:03:31;;;;;;;0.10;0.10;;;;;;;;;;5066904;28;20039;-65
2022/03/24 09:05:57;;;;;;;0.75;0.75;;;;;;;;;;5065959;28;20038;-67
2022/03/24 09:08:22;;;;;;;0.30;0.30;;;;;;;;;;5066349;28;20028;-66
2022/03/24 09:10:50;;;;;;;0.20;0.20;;;;;;;;;;5047867;28;20036;-66
2022/03/24 09:13:16;;;;;;;0.20;0.20;;;;;;;;;;5066904;28;20054;-66
2022/03/24 09:15:43;;;;;;;2.65;2.45;;;;;;;;;;5065721;28;20033;-65
2022/03/24 09:18:10;;;;;;;0.10;0.10;;;;;;;;;;5066294;28;20033;-66
2022/03/24 09:20:35;;;;;;;0.15;0.15;;;;;;;;;;5065654;28;20032;-66
2022/03/24 09:23:00;;;;;;;0.30;0.30;;;;;;;;;;5049030;28;20036;-66
2022/03/24 09:25:26;;;;;;;0.82;0.82;;;;;;;;;;5066053;28;20435;-65
2022/03/24 09:27:52;;;;;;;0.90;0.88;;;;;;;;;;5049048;28;20064;-67
2022/03/24 09:30:18;;;;;;;9.20;2.88;;;;;;;;;;5066459;28;20040;-67
2022/03/24 09:32:45;;;;;;;2.00;1.75;;;;;;;;;;5066805;28;20033;-67
2022/03/24 09:35:11;;;;;;;0.50;0.50;;;;;;;;;;5065537;28;20024;-67
2022/03/24 09:37:36;;;;;;;1.20;1.13;;;;;;;;;;5066360;28;20756;-67
2022/03/24 09:40:03;;;;;;;1.70;1.35;;;;;;;;;;5066871;28;20036;-67
2022/03/24 09:42:28;;;;;;;8.10;4.68;;;;;;;;;;5065806;28;20066;-66
2022/03/24 09:45:00;;;;;;;0.70;0.70;;;;;;;;;;5047377;28;20043;-68
2022/03/24 09:47:26;;;;;;;0.70;0.70;;;;;;;;;;5065181;28;20040;-67
2022/03/24 09:49:52;;;;;;;5.35;4.03;;;;;;;;;;5066687;28;20104;-66
2022/03/24 09:52:17;;;;;;;2.30;2.10;;;;;;;;;;5065878;28;20115;-65
2022/03/24 09:54:45;;;;;;;1.60;1.50;;;;;;;;;;5066702;28;20251;-65
2022/03/24 09:57:11;;;;;;;13.23;6.53;;;;;;;;;;5078600;28;20056;-66
2022/03/24 09:59:37;;;;;;;0.43;0.43;;;;;;;;;;5086578;28;20056;-64
2022/03/24 10:02:03;;;;;;;0.38;0.38;;;;;;;;;;5084596;28;20072;-66
2022/03/24 10:04:43;;;;;;;8.60;4.35;;;;;;;;;;5067574;28;20442;-65
2022/03/24 10:07:08;;;;;;;4.90;3.47;;;;;;;;;;5086173;28;20392;-66
2022/03/24 10:09:35;;;;;;;0.90;0.90;;;;;;;;;;5085780;28;20043;-66
2022/03/24 10:12:00;;;;;;;1.77;1.67;;;;;;;;;;5086916;28;20035;-66
2022/03/24 10:14:26;;;;;;;5.60;4.25;;;;;;;;;;5068386;28;20035;-66
2022/03/24 10:16:51;;;;;;;3.70;2.85;;;;;;;;;;5089522;28;20040;-65
2022/03/24 10:19:18;;;;;;;0.60;0.60;;;;;;;;;;5089939;28;20062;-66
2022/03/24 10:21:48;;;;;;;0.98;0.95;;;;;;;;;;5090108;28;20044;-66
2022/03/24 10:24:15;;;;;;;2.05;1.95;;;;;;;;;;5090297;28;20221;-66
2022/03/24 10:26:41;;;;;;;0.50;0.50;;;;;;;;;;5090404;28;20032;-66
2022/03/24 10:29:08;;;;;;;0.55;0.55;;;;;;;;;;5081909;28;20032;-66
2022/03/24 10:31:35;;;;;;;0.30;0.30;;;;;;;;;;5091981;28;20059;-67
2022/03/24 10:34:00;;;;;;;0.95;0.95;;;;;;;;;;5069795;28;20043;-65
2022/03/24 10:36:26;;;;;;;0.50;0.50;;;;;;;;;;5070875;28;20037;-66
2022/03/24 10:38:53;;;;;;;0.30;0.30;;;;;;;;;;5070902;28;20031;-66
2022/03/24 10:41:26;;;;;;;1.08;1.08;;;;;;;;;;5070574;28;20072;-66
2022/03/24 10:43:53;;;;;;;2.60;0.98;;;;;;;;;;5071089;28;20097;-66
2022/03/24 10:46:23;;;;;;;0.40;0.40;;;;;;;;;;5070643;28;20051;-66
2022/03/24 10:48:49;;;;;;;1.90;1.58;;;;;;;;;;5050347;28;20110;-67
2022/03/24 10:51:25;;;;;;;4.70;3.53;;;;;;;;;;5068722;28;20048;-66
2022/03/24 10:53:51;;;;;;;0.90;0.90;;;;;;;;;;5070809;28;20162;-66
2022/03/24 10:56:20;;;;;;;3.75;3.10;;;;;;;;;;5070866;28;20102;-65
2022/03/24 10:58:51;;;;;;;5.22;4.22;;;;;;;;;;5071203;28;20052;-66
2022/03/24 11:01:19;;;;;;;0.60;0.60;;;;;;;;;;5071085;28;20154;-65
2022/03/24 11:03:44;;;;;;;1.40;1.00;;;;;;;;;;5071561;28;20028;-65
2022/03/24 11:06:11;;;;;;;0.77;0.65;;;;;;;;;;5070929;28;20063;-67
2022/03/24 11:08:37;;;;;;;10.15;5.18;;;;;;;;;;5071137;28;20195;-67
2022/03/24 11:11:07;;;;;;;5.13;3.25;;;;;;;;;;5071136;28;20426;-65
2022/03/24 11:13:40;;;;;;;1.48;1.38;;;;;;;;;;5071203;28;20036;-66
2022/03/24 11:16:06;;;;;;;1.50;1.40;;;;;;;;;;5070903;28;20110;-66
2022/03/24 11:18:32;;;;;;;2.60;1.50;;;;;;;;;;5071146;28;20831;-65
2022/03/24 11:21:01;;;;;;;0.50;0.50;;;;;;;;;;5070858;28;20036;-65
2022/03/24 11:23:29;;;;;;;;;;;;;;;;;;5071196;28;20033;-65
2022/03/24 11:25:57;;;;;;;0.50;0.50;;;;;;;;;;5070480;28;19939;-66
2022/03/24 11:28:23;;;;;;;0.95;0.95;;;;;;;;;;5070584;28;20067;-67
2022/03/24 11:30:50;;;;;;;0.50;0.50;;;;;;;;;;5070827;28;20024;-66
2022/03/24 11:33:16;;;;;;;0.63;0.63;;;;;;;;;;5053326;28;20043;-66
2022/03/24 11:35:42;;;;;;;0.30;0.30;;;;;;;;;;5070708;28;20039;-66
2022/03/24 11:38:07;;;;;;;0.50;0.50;;;;;;;;;;5070817;28;20041;-66
2022/03/24 11:40:34;;;;;;;2.63;1.90;;;;;;;;;;5070753;28;20024;-66
2022/03/24 11:43:03;;;;;;;1.73;1.10;;;;;;;;;;5070635;28;20062;-65
2022/03/24 11:45:32;;;;;;;1.08;1.08;;;;;;;;;;5052425;28;20392;-65
2022/03/24 11:48:08;;;;;;;0.93;0.68;;;;;;;;;;5070522;28;20044;-66
2022/03/24 11:50:35;;;;;;;0.30;0.30;;;;;;;;;;5052302;28;20391;-65
2022/03/24 11:53:10;;;;;;;1.00;0.90;;;;;;;;;;5070414;28;20040;-65
2022/03/24 11:55:37;;;;;;;0.45;0.38;;;;;;;;;;5070681;28;20441;-65
2022/03/24 11:58:03;;;;;;;0.82;0.70;;;;;;;;;;5070702;28;20119;-65
2022/03/24 12:00:28;;;;;;;2.22;1.58;;;;;;;;;;5052306;28;20107;-65
2022/03/24 12:02:58;;;;;;;1.00;0.95;;;;;;;;;;5035625;28;20072;-65
2022/03/24 12:05:43;;;;;;;3.60;2.85;;;;;;;;;;5070236;28;20037;-65
2022/03/24 12:08:09;;;;;;;15.73;2.40;;;;;;;;;;5068308;28;20056;-67
2022/03/24 12:10:35;;;;;;;0.73;0.55;;;;;;;;;;5044597;28;20059;-67
2022/03/24 12:13:02;;;;;;;2.25;1.30;;;;;;;;;;5068547;28;20391;-66
2022/03/24 12:15:27;;;;;;;5.28;2.05;;;;;;;;;;5069227;28;20068;-66
2022/03/24 12:18:02;;;;;;;0.93;0.82;;;;;;;;;;5071584;28;20055;-66
2022/03/24 12:20:28;;;;;;;0.40;0.40;;;;;;;;;;5083119;28;20063;-67
2022/03/24 12:22:58;;;;;;;5.78;2.63;;;;;;;;;;5087414;28;20036;-65
2022/03/24 12:25:25;;;;;;;0.40;0.40;;;;;;;;;;5090100;28;20466;-67
2022/03/24 12:27:59;;;;;;;2.13;1.80;;;;;;;;;;5089698;28;20036;-68
2022/03/24 12:30:26;;;;;;;17.27;3.22;;;;;;;;;;5086583;28;20060;-66
2022/03/24 12:33:07;;;;;;;0.45;0.45;;;;;;;;;;5049476;28;20029;-66
2022/03/24 12:35:49;;;;;;;0.40;0.40;;;;;;;;;;5067556;28;20051;-66
2022/03/24 12:38:27;;;;;;;3.03;1.95;;;;;;;;;;5072916;28;20484;-66
2022/03/24 12:41:08;;;;;;;2.35;1.77;;;;;;;;;;5061053;28;20059;-66
2022/03/24 12:43:53;;;;;;;2.83;0.95;;;;;;;;;;5087160;28;20123;-67
2022/03/24 12:46:18;;;;;;;6.00;3.47;;;;;;;;;;5088799;28;20028;-66
2022/03/24 12:48:44;;;;;;;3.08;1.85;;;;;;;;;;5089430;28;20031;-66
2022/03/24 12:51:16;;;;;;;9.38;5.03;;;;;;;;;;5089089;28;20125;-64
2022/03/24 12:53:49;;;;;;;0.57;0.55;;;;;;;;;;5088885;28;20060;-66
2022/03/24 12:56:35;;;;;;;6.03;4.25;;;;;;;;;;5088731;28;20062;-65
2022/03/24 12:59:04;;;;;;;0.40;0.40;;;;;;;;;;5089023;28;20079;-66
2022/03/24 13:01:30;;;;;;;2.03;1.83;;;;;;;;;;5088520;28;20082;-66
2022/03/24 13:04:00;;;;;;;6.05;4.72;;;;;;;;;;5083261;28;20055;-67
2022/03/24 13:06:26;;;;;;;2.88;1.98;;;;;;;;;;5078981;28;20446;-66
2022/03/24 13:09:10;;;;;;;1.60;1.25;;;;;;;;;;5070455;28;20043;-67
2022/03/24 13:11:54;;;;;;;0.90;0.73;;;;;;;;;;5074658;28;20500;-66
2022/03/24 13:14:22;;;;;;;3.17;2.13;;;;;;;;;;5069056;28;20028;-67
2022/03/24 13:17:08;;;;;;;3.10;2.10;;;;;;;;;;5069307;28;20429;-67
2022/03/24 13:19:35;;;;;;;3.63;1.75;;;;;;;;;;5068967;28;20063;-68
2022/03/24 13:22:10;;;;;;;7.70;4.90;;;;;;;;;;5050844;28;20055;-66
2022/03/24 13:24:36;;;;;;;1.95;1.75;;;;;;;;;;5083483;28;20565;-67
2022/03/24 13:27:02;;;;;;;4.97;3.17;;;;;;;;;;5066745;28;20036;-66
2022/03/24 13:29:38;;;;;;;2.65;1.52;;;;;;;;;;5079742;28;20028;-67
2022/03/24 13:32:07;;;;;;;2.95;1.65;;;;;;;;;;5078578;28;20078;-66
2022/03/24 13:34:32;;;;;;;4.22;2.78;;;;;;;;;;5084872;28;20077;-66
2022/03/24 13:37:09;;;;;;;4.25;2.70;;;;;;;;;;5073583;28;20021;-67
2022/03/24 13:39:36;;;;;;;5.60;4.32;;;;;;;;;;5075254;28;20424;-66
2022/03/24 13:42:01;;;;;;;3.60;2.30;;;;;;;;;;5050778;28;20040;-66
2022/03/24 13:44:27;;;;;;;1.75;1.42;;;;;;;;;;5067898;28;20476;-66
2022/03/24 13:46:54;;;;;;;5.25;3.45;;;;;;;;;;5065971;28;20082;-66
2022/03/24 13:49:20;;;;;;;7.00;4.35;;;;;;;;;;5068771;28;20132;-67
2022/03/24 13:51:45;;;;;;;10.00;5.63;;;;;;;;;;5060322;28;20416;-65
2022/03/24 13:54:20;;;;;;;5.68;3.83;;;;;;;;;;5086690;28;20715;-66
2022/03/24 13:56:49;;;;;;;23.67;3.75;;;;;;;;;;5086598;28;20376;-66
2022/03/24 13:59:15;;;;;;;4.80;3.17;;;;;;;;;;5069711;28;20035;-66
2022/03/24 14:01:40;;;;;;;4.13;3.10;;;;;;;;;;5086774;28;20089;-66
2022/03/24 14:04:16;;;;;;;5.82;4.60;;;;;;;;;;5086669;28;20134;-66
2022/03/24 14:07:01;;;;;;;6.57;4.88;;;;;;;;;;5086995;28;20583;-67
2022/03/24 14:09:26;;;;;;;5.75;3.53;;;;;;;;;;5087516;28;20043;-66
2022/03/24 14:12:01;;;;;;;2.00;0.77;;;;;;;;;;5087926;28;20040;-67
2022/03/24 14:14:27;;;;;;;0.20;0.20;;;;;;;;;;5088435;28;20051;-67
2022/03/24 14:16:53;;;;;;;4.32;2.60;;;;;;;;;;5088361;28;20487;-66
2022/03/24 14:19:22;;;;;;;3.20;2.47;;;;;;;;;;5088564;28;20041;-66
2022/03/24 14:21:49;;;;;;;6.17;4.03;;;;;;;;;;5088799;28;20383;-66
2022/03/24 14:24:30;;;;;;;2.25;1.40;;;;;;;;;;5088327;28;20028;-67
2022/03/24 14:26:56;;;;;;;7.82;3.80;;;;;;;;;;5088323;28;20552;-65
2022/03/24 14:29:22;;;;;;;5.38;3.22;;;;;;;;;;5088097;28;20103;-65
2022/03/24 14:31:48;;;;;;;5.78;3.30;;;;;;;;;;5088319;28;20044;-66
2022/03/24 14:34:17;;;;;;;6.28;4.60;;;;;;;;;;5088124;28;20036;-66
2022/03/24 14:36:46;;;;;;;7.25;4.57;;;;;;;;;;5070091;28;20028;-67
2022/03/24 14:39:12;;;;;;;;;;;;;;;;;;5070667;28;20036;-67
2022/03/24 14:41:39;;;;;;;1.55;1.08;;;;;;;;;;5070156;28;19920;-67
2022/03/24 14:44:06;;;;;;;1.35;0.82;;;;;;;;;;5088202;28;20031;-68